This is the latest recevied weather packets stored in our database for station/object N5PRN. If no packets are shown the sender has not sent any weather packets the latest 1 day(s).
| Time | Temp. | Humidity | Pressure | Rain* | Wind** | Luminosity | Snow |
|---|---|---|---|---|---|---|---|
| 1836274639 | 22.78° C | 89% | 1016.5 hPa | 0 mm | 0 m/s | 0 W/m² | - |
| 1836274492 | 22.22° C | 89% | 1016.4 hPa | 0 mm | 0 m/s | 0 W/m² | - |
| 1836274337 | 22.78° C | 88% | 1016.5 hPa | 0 mm | 0 m/s | 0 W/m² | - |
| 1836274191 | 22.22° C | 89% | 1016.4 hPa | 0 mm | 0 m/s | 0 W/m² | - |
| 1836274036 | 22.78° C | 88% | 1016.4 hPa | 0 mm | 0 m/s | 0 W/m² | - |
| 1778051674 | 22.78° C | 96% | 1010.1 hPa | 0 mm | 0.45 m/s, 213° | 0 W/m² | - |
| 1778051370 | 22.78° C | 96% | 1010.1 hPa | 0 mm | 0.89 m/s, 243° | 0 W/m² | - |
| 1778051067 | 22.78° C | 95% | 1009.9 hPa | 0 mm | 0.89 m/s, 177° | 0 W/m² | - |
| 1778050764 | 22.78° C | 95% | 1010.3 hPa | 0 mm | 0.45 m/s, 209° | 0 W/m² | - |
| 1778050461 | 22.78° C | 95% | 1010.1 hPa | 0 mm | 0.89 m/s, 197° | 0 W/m² | - |
| 1778050158 | 22.78° C | 95% | 1009.9 hPa | 0 mm | 0.89 m/s, 192° | 0 W/m² | - |
| 1778049854 | 23.33° C | 95% | 1010.2 hPa | 0 mm | 0.45 m/s, 200° | 0 W/m² | - |
| 1778049551 | 23.33° C | 95% | 1010.1 hPa | 0 mm | 0.45 m/s, 225° | 0 W/m² | - |
| 1778049249 | 23.33° C | 95% | 1009.9 hPa | 0 mm | 0.89 m/s, 208° | 0 W/m² | - |
| 1778048947 | 23.33° C | 95% | 1009.9 hPa | 0 mm | 0.89 m/s, 235° | 0 W/m² | - |
| 1778048645 | 23.33° C | 95% | 1009.8 hPa | 0 mm | 1.34 m/s, 164° | 0 W/m² | - |
| 1778048340 | 23.33° C | 95% | 1010 hPa | 0 mm | 1.79 m/s, 270° | 0 W/m² | - |
| 1778048037 | 23.33° C | 95% | 1010.1 hPa | 0 mm | 3.13 m/s, 246° | 0 W/m² | - |
| 1778047735 | 23.33° C | 95% | 1010 hPa | 0 mm | 0.45 m/s, 204° | 0 W/m² | - |
| 1778047433 | 23.33° C | 94% | 1010 hPa | 0 mm | 0.89 m/s, 203° | 0 W/m² | - |
| 1778047129 | 23.33° C | 94% | 1010.2 hPa | 0 mm | 0.45 m/s, 215° | 0 W/m² | - |
| 1778046826 | 23.33° C | 94% | 1010 hPa | 0 mm | 1.34 m/s, 212° | 0 W/m² | - |
| 1778046523 | 23.33° C | 94% | 1009.9 hPa | 0 mm | 1.79 m/s, 185° | 0 W/m² | - |
| 1778046220 | 23.33° C | 94% | 1010.1 hPa | 0 mm | 2.24 m/s, 237° | 0 W/m² | - |
| 1778045916 | 23.33° C | 94% | 1010.1 hPa | 0 mm | 1.34 m/s, 201° | 0 W/m² | - |
* Rain latest hour (hover to see other rain measurements)
** Current wind speed in m/s (hover to see current wind gust speed)